createdAt,value
2018-07-08T00:00:14.822Z,26.94
2018-07-08T00:01:24.250Z,26.91
2018-07-08T00:02:33.397Z,26.94
2018-07-08T00:03:42.302Z,26.81
2018-07-08T00:04:52.227Z,26.95
2018-07-08T00:06:01.904Z,26.82
2018-07-08T00:07:11.580Z,26.85
2018-07-08T00:08:20.759Z,26.82
2018-07-08T00:09:30.430Z,26.88
2018-07-08T00:10:39.858Z,26.81
2018-07-08T00:11:49.273Z,26.77
2018-07-08T00:12:58.701Z,26.85
2018-07-08T00:14:08.382Z,26.82
2018-07-08T00:15:17.532Z,26.81
2018-07-08T00:16:26.185Z,26.75
2018-07-08T00:17:35.599Z,26.8
2018-07-08T00:18:45.023Z,26.76
2018-07-08T00:19:54.429Z,26.8
2018-07-08T00:21:03.569Z,26.77
2018-07-08T00:22:13.008Z,26.8
2018-07-08T00:23:22.436Z,26.8
2018-07-08T00:24:32.367Z,26.8
2018-07-08T00:25:41.559Z,26.85
2018-07-08T00:26:51.231Z,26.73
2018-07-08T00:28:01.170Z,26.75
2018-07-08T00:29:10.330Z,26.76
2018-07-08T00:30:19.756Z,26.77
2018-07-08T00:31:29.434Z,26.8
2018-07-08T00:32:39.116Z,26.84
2018-07-08T00:33:48.829Z,26.76
2018-07-08T00:34:58.785Z,26.77
2018-07-08T00:36:08.191Z,26.81
2018-07-08T00:37:17.630Z,26.7
2018-07-08T00:38:26.805Z,26.75
2018-07-08T00:39:36.232Z,26.66
2018-07-08T00:40:45.647Z,26.81
2018-07-08T00:41:54.587Z,26.82
2018-07-08T00:43:03.995Z,26.8
2018-07-08T00:44:12.923Z,26.67
2018-07-08T00:45:22.127Z,26.75
2018-07-08T00:46:31.980Z,26.77
2018-07-08T00:47:41.922Z,26.69
2018-07-08T00:48:51.879Z,26.73
2018-07-08T00:50:01.306Z,26.7
2018-07-08T00:51:10.501Z,26.65
2018-07-08T00:52:19.949Z,26.66
2018-07-08T00:53:29.382Z,26.75
2018-07-08T00:54:38.806Z,26.73
2018-07-08T00:55:48.237Z,26.6
2018-07-08T00:56:57.935Z,26.62
2018-07-08T00:58:07.339Z,26.7
2018-07-08T00:59:16.740Z,26.63
2018-07-08T01:00:26.401Z,26.6
2018-07-08T01:01:35.920Z,26.66
2018-07-08T01:02:45.672Z,26.72
2018-07-08T01:03:55.094Z,26.63
2018-07-08T01:05:05.034Z,26.62
2018-07-08T01:06:14.210Z,26.65
2018-07-08T01:07:23.643Z,26.65
2018-07-08T01:08:33.064Z,26.65
2018-07-08T01:09:43.058Z,26.66
2018-07-08T01:10:52.231Z,26.63
2018-07-08T01:12:01.915Z,26.67
2018-07-08T01:13:11.083Z,26.63
2018-07-08T01:14:20.768Z,26.63
2018-07-08T01:15:30.449Z,26.63
2018-07-08T01:16:40.139Z,26.6
2018-07-08T01:17:49.853Z,26.58
2018-07-08T01:18:58.780Z,26.54
2018-07-08T01:20:08.211Z,26.63
2018-07-08T01:21:17.440Z,26.54
2018-07-08T01:22:26.597Z,26.58
2018-07-08T01:23:35.771Z,26.65
2018-07-08T01:24:44.661Z,26.54
2018-07-08T01:25:54.343Z,26.57
2018-07-08T01:27:04.018Z,26.63
2018-07-08T01:28:13.189Z,26.51
2018-07-08T01:29:22.617Z,26.52
2018-07-08T01:30:32.024Z,26.58
2018-07-08T01:31:41.185Z,26.54
2018-07-08T01:32:50.864Z,26.52
2018-07-08T01:33:59.829Z,26.54
2018-07-08T01:35:09.259Z,26.58
2018-07-08T01:36:17.910Z,26.5
2018-07-08T01:37:27.071Z,26.5
2018-07-08T01:38:36.739Z,26.52
2018-07-08T01:39:45.892Z,26.52
2018-07-08T01:40:55.296Z,26.5
2018-07-08T01:42:04.730Z,26.5
2018-07-08T01:43:13.388Z,26.54
2018-07-08T01:44:23.474Z,26.52
2018-07-08T01:45:33.411Z,26.5
2018-07-08T01:46:42.584Z,26.47
2018-07-08T01:47:52.010Z,26.5
2018-07-08T01:49:01.163Z,26.5
2018-07-08T01:50:10.355Z,26.44
2018-07-08T01:51:19.795Z,26.47
2018-07-08T01:52:29.011Z,26.43
2018-07-08T01:53:37.931Z,26.45
2018-07-08T01:54:47.360Z,26.4
2018-07-08T01:55:56.781Z,26.48
2018-07-08T01:57:06.185Z,26.47
2018-07-08T01:58:15.585Z,26.45
2018-07-08T01:59:25.248Z,26.47
2018-07-08T02:00:34.926Z,26.47
2018-07-08T02:01:44.482Z,26.47
2018-07-08T02:02:54.376Z,26.5
2018-07-08T02:04:03.810Z,26.43
2018-07-08T02:05:12.971Z,26.43
2018-07-08T02:06:22.124Z,26.44
2018-07-08T02:07:31.566Z,26.47
2018-07-08T02:08:40.973Z,26.43
2018-07-08T02:09:50.174Z,26.44
2018-07-08T02:10:59.340Z,26.39
2018-07-08T02:12:09.271Z,26.35
2018-07-08T02:13:18.176Z,26.33
2018-07-08T02:14:27.602Z,26.36
2018-07-08T02:15:37.053Z,26.44
2018-07-08T02:16:46.226Z,26.32
2018-07-08T02:17:55.427Z,26.33
2018-07-08T02:19:04.710Z,26.32
2018-07-08T02:20:14.124Z,26.35
2018-07-08T02:21:23.276Z,26.35
2018-07-08T02:22:32.714Z,26.39
2018-07-08T02:23:42.639Z,26.32
2018-07-08T02:24:52.323Z,26.32
2018-07-08T02:26:01.728Z,26.28
2018-07-08T02:27:11.662Z,26.3
2018-07-08T02:28:21.578Z,26.32
2018-07-08T02:29:30.760Z,26.28
2018-07-08T02:30:40.199Z,26.3
2018-07-08T02:31:49.943Z,26.3
2018-07-08T02:32:59.620Z,26.29
2018-07-08T02:34:09.308Z,26.26
2018-07-08T02:35:18.476Z,26.32
2018-07-08T02:36:27.648Z,26.33
2018-07-08T02:37:37.399Z,26.26
2018-07-08T02:38:47.347Z,26.26
2018-07-08T02:39:57.091Z,26.35
2018-07-08T02:41:06.801Z,26.28
2018-07-08T02:42:16.764Z,26.26
2018-07-08T02:43:25.941Z,26.23
2018-07-08T02:44:35.872Z,26.28
2018-07-08T02:45:45.840Z,26.21
2018-07-08T02:46:55.777Z,26.23
2018-07-08T02:48:05.489Z,26.23
2018-07-08T02:49:15.192Z,26.23
2018-07-08T02:50:24.377Z,26.2
2018-07-08T02:51:34.059Z,26.21
2018-07-08T02:52:44.166Z,26.26
2018-07-08T02:53:53.853Z,26.25
2018-07-08T02:55:03.535Z,26.25
2018-07-08T02:56:12.969Z,26.28
2018-07-08T02:57:22.673Z,26.28
2018-07-08T02:58:32.128Z,26.25
2018-07-08T02:59:41.577Z,26.21
2018-07-08T03:00:51.262Z,26.18
2018-07-08T03:02:01.219Z,26.17
2018-07-08T03:03:10.681Z,26.23
2018-07-08T03:04:20.109Z,26.21
2018-07-08T03:05:30.046Z,26.21
2018-07-08T03:06:39.481Z,26.09
2018-07-08T03:07:48.675Z,26.17
2018-07-08T03:08:58.709Z,26.1
2018-07-08T03:10:08.382Z,26.13
2018-07-08T03:11:18.075Z,26.09
2018-07-08T03:12:27.497Z,26.1
2018-07-08T03:13:37.448Z,26.13
2018-07-08T03:14:47.419Z,26.07
2018-07-08T03:15:57.101Z,26.09
2018-07-08T03:17:06.795Z,26.09
2018-07-08T03:18:16.558Z,26.09
2018-07-08T03:19:25.978Z,26.12
2018-07-08T03:20:35.410Z,26.15
2018-07-08T03:21:44.825Z,26.12
2018-07-08T03:22:54.238Z,25.99
2018-07-08T03:24:03.912Z,26.12
2018-07-08T03:25:13.077Z,25.99
2018-07-08T03:26:22.504Z,26.01
2018-07-08T03:27:32.187Z,26.12
2018-07-08T03:28:41.103Z,25.99
2018-07-08T03:29:50.249Z,26.06
2018-07-08T03:30:59.935Z,25.98
2018-07-08T03:32:10.055Z,26.05
2018-07-08T03:33:19.512Z,25.97
2018-07-08T03:34:28.747Z,25.99
2018-07-08T03:35:37.897Z,25.97
2018-07-08T03:36:47.561Z,26.05
2018-07-08T03:37:57.240Z,26.06
2018-07-08T03:39:06.424Z,25.99
2018-07-08T03:40:16.108Z,25.91
2018-07-08T03:41:25.530Z,26.06
2018-07-08T03:42:34.708Z,25.92
2018-07-08T03:43:43.356Z,26.06
2018-07-08T03:44:53.025Z,26.05
2018-07-08T03:46:01.655Z,26.09
2018-07-08T03:47:10.806Z,26.05
2018-07-08T03:48:20.471Z,25.97
2018-07-08T03:49:29.632Z,26.05
2018-07-08T03:50:39.055Z,26.05
2018-07-08T03:51:48.219Z,25.98
2018-07-08T03:52:57.908Z,25.95
2018-07-08T03:54:07.064Z,25.95
2018-07-08T03:55:16.236Z,25.98
2018-07-08T03:56:25.655Z,25.92
2018-07-08T03:57:35.339Z,25.92
2018-07-08T03:58:44.512Z,25.94
2018-07-08T03:59:53.929Z,25.94
2018-07-08T04:01:03.860Z,25.97
2018-07-08T04:02:13.079Z,25.95
2018-07-08T04:03:22.478Z,25.9
2018-07-08T04:04:32.151Z,25.95
2018-07-08T04:05:41.581Z,25.97
2018-07-08T04:06:51.266Z,25.95
2018-07-08T04:08:00.165Z,25.97
2018-07-08T04:09:09.583Z,25.97
2018-07-08T04:10:18.555Z,25.94
2018-07-08T04:11:27.974Z,25.97
2018-07-08T04:12:36.896Z,25.92
2018-07-08T04:13:46.324Z,25.92
2018-07-08T04:14:55.744Z,25.97
2018-07-08T04:16:04.662Z,25.94
2018-07-08T04:17:13.822Z,25.92
2018-07-08T04:18:22.973Z,25.95
2018-07-08T04:19:32.638Z,25.97
2018-07-08T04:20:42.319Z,25.94
2018-07-08T04:21:51.736Z,25.94
2018-07-08T04:23:00.909Z,25.91
2018-07-08T04:24:09.827Z,25.91
2018-07-08T04:25:19.271Z,25.94
2018-07-08T04:26:28.700Z,25.94
2018-07-08T04:27:37.608Z,25.91
2018-07-08T04:28:47.022Z,25.88
2018-07-08T04:29:56.447Z,25.92
2018-07-08T04:31:05.873Z,25.94
2018-07-08T04:32:15.076Z,25.92
2018-07-08T04:33:24.807Z,25.91
2018-07-08T04:34:34.488Z,25.92
2018-07-08T04:35:43.409Z,25.91
2018-07-08T04:36:53.344Z,25.88
2018-07-08T04:38:02.761Z,25.92
2018-07-08T04:39:11.926Z,25.9
2018-07-08T04:40:21.375Z,25.95
2018-07-08T04:41:30.797Z,25.88
2018-07-08T04:42:39.965Z,25.9
2018-07-08T04:43:49.633Z,25.91
2018-07-08T04:44:58.529Z,25.91
2018-07-08T04:46:07.430Z,25.88
2018-07-08T04:47:16.076Z,25.91
2018-07-08T04:48:25.494Z,25.9
2018-07-08T04:49:34.916Z,25.91
2018-07-08T04:50:44.095Z,25.88
2018-07-08T04:51:53.770Z,25.92
2018-07-08T04:53:03.437Z,25.92
2018-07-08T04:54:12.610Z,25.91
2018-07-08T04:55:22.038Z,25.92
2018-07-08T04:56:31.511Z,25.85
2018-07-08T04:57:40.433Z,25.91
2018-07-08T04:58:50.569Z,25.83
2018-07-08T04:59:59.726Z,25.88
2018-07-08T05:01:09.170Z,25.87
2018-07-08T05:02:18.577Z,25.85
2018-07-08T05:03:27.754Z,25.91
2018-07-08T05:04:37.691Z,25.91
2018-07-08T05:05:47.387Z,25.88
2018-07-08T05:06:56.860Z,25.79
2018-07-08T05:08:06.533Z,25.85
2018-07-08T05:09:15.436Z,25.85
2018-07-08T05:10:24.850Z,25.82
2018-07-08T05:11:34.532Z,25.9
2018-07-08T05:12:43.956Z,25.82
2018-07-08T05:13:53.149Z,25.79
2018-07-08T05:15:02.582Z,25.8
2018-07-08T05:16:11.990Z,25.85
2018-07-08T05:17:21.408Z,25.77
2018-07-08T05:18:30.818Z,25.82
2018-07-08T05:19:39.739Z,25.8
2018-07-08T05:20:49.433Z,25.79
2018-07-08T05:21:58.601Z,25.79
2018-07-08T05:23:08.006Z,25.85
2018-07-08T05:24:17.972Z,25.72
2018-07-08T05:25:27.390Z,25.75
2018-07-08T05:26:36.807Z,25.77
2018-07-08T05:27:46.233Z,25.83
2018-07-08T05:28:55.129Z,25.77
2018-07-08T05:30:04.316Z,25.7
2018-07-08T05:31:14.004Z,25.77
2018-07-08T05:32:23.421Z,25.75
2018-07-08T05:33:33.096Z,25.85
2018-07-08T05:34:42.495Z,25.77
2018-07-08T05:35:52.475Z,25.77
2018-07-08T05:37:01.389Z,25.77
2018-07-08T05:38:11.065Z,25.82
2018-07-08T05:39:20.797Z,25.82
2018-07-08T05:40:30.195Z,25.76
2018-07-08T05:41:39.595Z,25.76
2018-07-08T05:42:49.574Z,25.79
2018-07-08T05:43:59.042Z,25.77
2018-07-08T05:45:08.212Z,25.77
2018-07-08T05:46:17.381Z,25.77
2018-07-08T05:47:26.555Z,25.79
2018-07-08T05:48:36.222Z,25.79
2018-07-08T05:49:45.419Z,25.8
2018-07-08T05:50:54.816Z,25.79
2018-07-08T05:52:04.243Z,25.82
2018-07-08T05:53:13.690Z,25.76
2018-07-08T05:54:23.358Z,25.75
2018-07-08T05:55:33.052Z,25.79
2018-07-08T05:56:42.469Z,25.79
2018-07-08T05:57:51.899Z,25.77
2018-07-08T05:59:01.305Z,25.82
2018-07-08T06:00:10.710Z,25.79
2018-07-08T06:01:19.883Z,25.82
2018-07-08T06:02:29.545Z,25.85
2018-07-08T06:03:39.226Z,25.79
2018-07-08T06:04:48.721Z,25.8
2018-07-08T06:05:58.388Z,25.85
2018-07-08T06:07:08.315Z,25.85
2018-07-08T06:08:17.529Z,25.9
2018-07-08T06:09:26.699Z,25.8
2018-07-08T06:10:36.120Z,25.79
2018-07-08T06:11:45.798Z,25.88
2018-07-08T06:12:55.229Z,25.85
2018-07-08T06:14:04.645Z,25.83
2018-07-08T06:15:14.325Z,25.82
2018-07-08T06:16:23.760Z,25.85
2018-07-08T06:17:32.912Z,25.77
2018-07-08T06:18:42.080Z,25.79
2018-07-08T06:19:51.495Z,25.83
2018-07-08T06:21:00.663Z,25.82
2018-07-08T06:22:09.799Z,25.8
2018-07-08T06:23:19.204Z,25.83
2018-07-08T06:24:28.615Z,25.87
2018-07-08T06:25:37.505Z,25.85
2018-07-08T06:26:46.924Z,25.85
2018-07-08T06:27:55.831Z,25.91
2018-07-08T06:29:04.776Z,25.73
2018-07-08T06:30:14.182Z,25.92
2018-07-08T06:31:23.600Z,25.82
2018-07-08T06:32:32.499Z,25.85
2018-07-08T06:33:41.685Z,25.85
2018-07-08T06:34:51.355Z,25.83
2018-07-08T06:36:00.784Z,25.82
2018-07-08T06:37:09.946Z,25.92
2018-07-08T06:38:19.373Z,25.91
2018-07-08T06:39:28.784Z,25.82
2018-07-08T06:40:37.976Z,25.83
2018-07-08T06:41:47.658Z,25.85
2018-07-08T06:42:56.824Z,25.85
2018-07-08T06:44:06.535Z,25.91
2018-07-08T06:45:15.943Z,25.87
2018-07-08T06:46:25.629Z,25.88
2018-07-08T06:47:34.547Z,25.92
2018-07-08T06:48:44.223Z,25.9
2018-07-08T06:49:53.905Z,25.88
2018-07-08T06:51:03.596Z,25.91
2018-07-08T06:52:12.994Z,25.92
2018-07-08T06:53:22.673Z,25.92
2018-07-08T06:54:32.809Z,25.91
2018-07-08T06:55:42.260Z,25.92
2018-07-08T06:56:50.968Z,25.97
2018-07-08T06:58:00.849Z,25.94
2018-07-08T06:59:09.746Z,25.92
2018-07-08T07:00:18.914Z,25.91
2018-07-08T07:01:28.598Z,25.92
2018-07-08T07:02:38.278Z,25.9
2018-07-08T07:03:47.446Z,25.91
2018-07-08T07:04:56.855Z,25.92
2018-07-08T07:06:06.005Z,25.95
2018-07-08T07:07:15.173Z,25.94
2018-07-08T07:08:24.337Z,25.91
2018-07-08T07:09:33.752Z,25.91
2018-07-08T07:10:43.684Z,25.92
2018-07-08T07:11:53.369Z,25.94
2018-07-08T07:13:02.805Z,25.91
2018-07-08T07:14:12.491Z,25.92
2018-07-08T07:15:21.651Z,25.94
2018-07-08T07:16:31.081Z,25.95
2018-07-08T07:17:40.791Z,25.95
2018-07-08T07:18:50.471Z,25.95
2018-07-08T07:19:59.905Z,25.97
2018-07-08T07:21:09.339Z,25.97
2018-07-08T07:22:18.778Z,25.95
2018-07-08T07:23:27.938Z,26.01
2018-07-08T07:24:37.594Z,26.05
2018-07-08T07:25:46.818Z,26.06
2018-07-08T07:26:56.236Z,26.01
2018-07-08T07:28:05.897Z,26.05
2018-07-08T07:29:15.049Z,25.99
2018-07-08T07:30:24.476Z,25.97
2018-07-08T07:31:33.909Z,25.98
2018-07-08T07:32:43.323Z,25.98
2018-07-08T07:33:52.745Z,26.01
2018-07-08T07:35:02.669Z,26.12
2018-07-08T07:36:12.083Z,26.12
2018-07-08T07:37:22.274Z,26.09
2018-07-08T07:38:31.636Z,26.09
2018-07-08T07:39:40.788Z,26.06
2018-07-08T07:40:49.935Z,26.18
2018-07-08T07:41:59.368Z,26.09
2018-07-08T07:43:08.537Z,26.23
2018-07-08T07:44:17.963Z,26.28
2018-07-08T07:45:28.173Z,26.2
2018-07-08T07:46:38.005Z,26.21
2018-07-08T07:47:47.948Z,26.2
2018-07-08T07:48:57.624Z,26.2
2018-07-08T07:50:07.051Z,26.21
2018-07-08T07:51:16.930Z,26.23
2018-07-08T07:52:26.348Z,26.3
2018-07-08T07:53:35.772Z,26.29
2018-07-08T07:54:45.258Z,26.25
2018-07-08T07:55:54.670Z,26.32
2018-07-08T07:57:04.081Z,26.28
2018-07-08T07:58:14.019Z,26.26
2018-07-08T07:59:23.458Z,26.33
2018-07-08T08:00:33.137Z,26.36
2018-07-08T08:01:42.555Z,26.33
2018-07-08T08:02:51.719Z,26.32
2018-07-08T08:04:00.613Z,26.33
2018-07-08T08:05:10.321Z,26.33
2018-07-08T08:06:19.742Z,26.32
2018-07-08T08:07:28.910Z,26.39
2018-07-08T08:08:38.824Z,26.36
2018-07-08T08:09:48.259Z,26.36
2018-07-08T08:10:57.676Z,26.37
2018-07-08T08:12:07.367Z,26.37
2018-07-08T08:13:17.047Z,26.35
2018-07-08T08:14:26.213Z,26.43
2018-07-08T08:15:35.661Z,26.35
2018-07-08T08:16:45.343Z,26.44
2018-07-08T08:17:55.043Z,26.43
2018-07-08T08:19:04.723Z,26.44
2018-07-08T08:20:14.148Z,26.44
2018-07-08T08:21:23.044Z,26.44
2018-07-08T08:22:31.959Z,26.44
2018-07-08T08:23:41.404Z,26.39
2018-07-08T08:24:51.072Z,26.44
2018-07-08T08:26:00.755Z,26.43
2018-07-08T08:27:10.438Z,26.45
2018-07-08T08:28:19.967Z,26.44
2018-07-08T08:29:29.448Z,26.39
2018-07-08T08:30:38.884Z,26.37
2018-07-08T08:31:48.038Z,26.43
2018-07-08T08:32:56.942Z,26.43
2018-07-08T08:34:06.432Z,26.43
2018-07-08T08:35:16.105Z,26.5
2018-07-08T08:36:25.042Z,26.51
2018-07-08T08:37:34.467Z,26.48
2018-07-08T08:38:44.155Z,26.5
2018-07-08T08:39:53.582Z,26.5
2018-07-08T08:41:03.051Z,26.43
2018-07-08T08:42:12.466Z,26.45
2018-07-08T08:43:21.892Z,26.43
2018-07-08T08:44:31.048Z,26.48
2018-07-08T08:45:40.442Z,26.48
2018-07-08T08:46:50.139Z,26.47
2018-07-08T08:47:59.599Z,26.4
2018-07-08T08:49:08.846Z,26.5
2018-07-08T08:50:18.011Z,26.45
2018-07-08T08:51:27.952Z,26.47
2018-07-08T08:52:37.391Z,26.5
2018-07-08T08:53:46.534Z,26.43
2018-07-08T08:54:56.011Z,26.47
2018-07-08T08:56:05.740Z,26.47
2018-07-08T08:57:15.190Z,26.43
2018-07-08T08:58:24.500Z,26.44
2018-07-08T08:59:34.489Z,26.45
2018-07-08T09:00:44.402Z,26.47
2018-07-08T09:01:53.829Z,26.4
2018-07-08T09:03:02.996Z,26.48
2018-07-08T09:04:12.145Z,26.48
2018-07-08T09:05:21.836Z,26.48
2018-07-08T09:06:31.562Z,26.45
2018-07-08T09:07:40.989Z,26.43
2018-07-08T09:08:50.448Z,26.44
2018-07-08T09:10:00.369Z,26.44
2018-07-08T09:11:09.793Z,26.39
2018-07-08T09:12:19.217Z,26.43
2018-07-08T09:13:28.377Z,26.37
2018-07-08T09:14:37.538Z,26.36
2018-07-08T09:15:46.690Z,26.37
2018-07-08T09:16:55.858Z,26.4
2018-07-08T09:18:05.542Z,26.36
2018-07-08T09:19:15.521Z,26.36
2018-07-08T09:20:26.516Z,26.39
2018-07-08T09:21:35.766Z,26.39
2018-07-08T09:22:46.656Z,26.35
2018-07-08T09:23:56.255Z,26.39
2018-07-08T09:25:05.832Z,26.36
2018-07-08T09:26:15.691Z,26.45
2018-07-08T09:27:25.436Z,26.48
2018-07-08T09:28:35.246Z,26.39
2018-07-08T09:29:45.224Z,26.48
2018-07-08T09:30:55.079Z,26.45
2018-07-08T09:32:04.580Z,26.48
2018-07-08T09:33:14.307Z,26.47
2018-07-08T09:34:23.469Z,26.51
2018-07-08T09:35:33.199Z,26.5
2018-07-08T09:36:42.378Z,26.52
2018-07-08T09:37:52.065Z,26.58
2018-07-08T09:39:02.197Z,26.62
2018-07-08T09:40:11.371Z,26.55
2018-07-08T09:41:20.262Z,26.6
2018-07-08T09:42:29.939Z,26.57
2018-07-08T09:43:39.107Z,26.52
2018-07-08T09:44:48.768Z,26.5
2018-07-08T09:45:57.969Z,26.58
2018-07-08T09:47:07.557Z,26.52
2018-07-08T09:48:17.218Z,26.57
2018-07-08T09:49:26.131Z,26.54
2018-07-08T09:50:36.048Z,26.54
2018-07-08T09:51:45.478Z,26.55
2018-07-08T09:52:54.890Z,26.6
2018-07-08T09:54:04.316Z,26.57
2018-07-08T09:55:13.478Z,26.62
2018-07-08T09:56:22.392Z,26.6
2018-07-08T09:57:32.104Z,26.57
2018-07-08T09:58:41.522Z,26.57
2018-07-08T09:59:50.936Z,26.6
2018-07-08T10:01:00.110Z,26.51
2018-07-08T10:02:09.014Z,26.55
2018-07-08T10:03:18.685Z,26.55
2018-07-08T10:04:27.903Z,26.6
2018-07-08T10:05:37.613Z,26.6
2018-07-08T10:06:47.274Z,26.58
2018-07-08T10:07:56.498Z,26.55
2018-07-08T10:09:06.165Z,26.57
2018-07-08T10:10:15.389Z,26.6
2018-07-08T10:11:24.297Z,26.6
2018-07-08T10:12:34.005Z,26.54
2018-07-08T10:13:43.602Z,26.55
2018-07-08T10:14:53.219Z,26.6
2018-07-08T10:16:02.438Z,26.58
2018-07-08T10:17:11.390Z,26.62
2018-07-08T10:18:20.559Z,26.62
2018-07-08T10:19:30.394Z,26.62
2018-07-08T10:20:40.448Z,26.65
2018-07-08T10:21:50.134Z,26.62
2018-07-08T10:22:59.539Z,26.66
2018-07-08T10:24:08.961Z,26.65
2018-07-08T10:25:18.387Z,26.66
2018-07-08T10:26:28.297Z,26.63
2018-07-08T10:27:37.181Z,26.65
2018-07-08T10:28:46.596Z,26.65
2018-07-08T10:29:55.509Z,26.6
2018-07-08T10:31:04.397Z,26.67
2018-07-08T10:32:14.070Z,26.66
2018-07-08T10:33:23.500Z,26.62
2018-07-08T10:34:32.385Z,26.62
2018-07-08T10:35:41.023Z,26.66
2018-07-08T10:36:50.179Z,26.67
2018-07-08T10:37:59.339Z,26.65
2018-07-08T10:39:08.748Z,26.63
2018-07-08T10:40:18.155Z,26.65
2018-07-08T10:41:27.568Z,26.62
2018-07-08T10:42:36.977Z,26.69
2018-07-08T10:43:46.131Z,26.67
2018-07-08T10:44:55.348Z,26.66
2018-07-08T10:46:04.495Z,26.65
2018-07-08T10:47:13.640Z,26.62
2018-07-08T10:48:22.531Z,26.72
2018-07-08T10:49:31.961Z,26.72
2018-07-08T10:50:41.367Z,26.66
2018-07-08T10:51:51.029Z,26.6
2018-07-08T10:53:00.442Z,26.62
2018-07-08T10:54:10.111Z,26.73
2018-07-08T10:55:19.856Z,26.58
2018-07-08T10:56:30.015Z,26.62
2018-07-08T10:57:39.163Z,26.65
2018-07-08T10:58:48.308Z,26.66
2018-07-08T10:59:57.703Z,26.77
2018-07-08T11:01:07.390Z,26.63
2018-07-08T11:02:16.807Z,26.76
2018-07-08T11:03:26.493Z,26.76
2018-07-08T11:04:36.412Z,26.73
2018-07-08T11:05:45.817Z,26.6
2018-07-08T11:06:55.216Z,26.73
2018-07-08T11:08:04.631Z,26.7
2018-07-08T11:09:14.356Z,26.75
2018-07-08T11:10:23.262Z,26.7
2018-07-08T11:11:32.443Z,26.73
2018-07-08T11:12:41.852Z,26.75
2018-07-08T11:13:51.017Z,26.75
2018-07-08T11:15:00.444Z,26.73
2018-07-08T11:16:09.867Z,26.76
2018-07-08T11:17:19.538Z,26.7
2018-07-08T11:18:28.695Z,26.73
2018-07-08T11:19:37.840Z,26.7
2018-07-08T11:20:47.510Z,26.73
2018-07-08T11:21:56.693Z,26.8
2018-07-08T11:23:05.859Z,26.69
2018-07-08T11:24:15.522Z,26.77
2018-07-08T11:25:24.425Z,26.75
2018-07-08T11:26:33.841Z,26.67
2018-07-08T11:27:43.755Z,26.67
2018-07-08T11:28:52.654Z,26.7
2018-07-08T11:30:02.071Z,26.75
2018-07-08T11:31:10.981Z,26.77
2018-07-08T11:32:20.646Z,26.72
2018-07-08T11:33:30.070Z,26.81
2018-07-08T11:34:39.226Z,26.77
2018-07-08T11:35:48.374Z,26.75
2018-07-08T11:36:58.301Z,26.77
2018-07-08T11:38:07.455Z,26.75
2018-07-08T11:39:16.615Z,26.81
2018-07-08T11:40:26.110Z,26.76
2018-07-08T11:41:35.785Z,26.76
2018-07-08T11:42:45.224Z,26.75
2018-07-08T11:43:54.981Z,26.77
2018-07-08T11:45:04.642Z,26.77
2018-07-08T11:46:13.532Z,26.76
2018-07-08T11:47:23.208Z,26.84
2018-07-08T11:48:32.365Z,26.75
2018-07-08T11:49:42.299Z,26.76
2018-07-08T11:50:51.779Z,26.73
2018-07-08T11:52:00.928Z,26.8
2018-07-08T11:53:10.609Z,26.77
2018-07-08T11:54:19.517Z,26.73
2018-07-08T11:55:29.463Z,26.73
2018-07-08T11:56:39.125Z,26.76
2018-07-08T11:57:49.076Z,26.75
2018-07-08T11:58:58.246Z,26.73
2018-07-08T12:00:07.681Z,26.8
2018-07-08T12:01:16.836Z,26.76
2018-07-08T12:02:26.802Z,26.73
2018-07-08T12:03:35.945Z,26.81
2018-07-08T12:04:45.371Z,26.75
2018-07-08T12:05:54.540Z,26.75
2018-07-08T12:07:03.951Z,26.84
2018-07-08T12:08:13.636Z,26.77
2018-07-08T12:09:23.052Z,26.77
2018-07-08T12:10:32.212Z,26.75
2018-07-08T12:11:41.147Z,26.82
2018-07-08T12:12:50.559Z,26.75
2018-07-08T12:13:59.487Z,26.8
2018-07-08T12:15:08.660Z,26.75
2018-07-08T12:16:18.343Z,26.75
2018-07-08T12:17:27.495Z,26.8
2018-07-08T12:18:36.642Z,26.89
2018-07-08T12:19:46.572Z,26.76
2018-07-08T12:20:56.245Z,26.72
2018-07-08T12:22:05.390Z,26.81
2018-07-08T12:23:14.536Z,26.81
2018-07-08T12:24:23.692Z,26.82
2018-07-08T12:25:33.626Z,26.72
2018-07-08T12:26:43.555Z,26.87
2018-07-08T12:27:52.991Z,26.84
2018-07-08T12:29:02.652Z,26.81
2018-07-08T12:30:11.809Z,26.85
2018-07-08T12:31:21.493Z,26.87
2018-07-08T12:32:30.900Z,26.88
2018-07-08T12:33:40.324Z,26.81
2018-07-08T12:34:50.007Z,26.84
2018-07-08T12:35:59.684Z,26.84
2018-07-08T12:37:08.853Z,26.84
2018-07-08T12:38:18.019Z,26.82
2018-07-08T12:39:27.181Z,26.87
2018-07-08T12:40:36.601Z,26.91
2018-07-08T12:41:46.260Z,26.85
2018-07-08T12:42:55.191Z,26.85
2018-07-08T12:44:04.954Z,26.85
2018-07-08T12:45:14.367Z,26.81
2018-07-08T12:46:23.521Z,26.88
2018-07-08T12:47:32.431Z,26.87
2018-07-08T12:48:41.580Z,26.84
2018-07-08T12:49:50.723Z,26.85
2018-07-08T12:51:00.138Z,26.82
2018-07-08T12:52:09.552Z,26.85
2018-07-08T12:53:18.720Z,26.84
2018-07-08T12:54:28.144Z,26.85
2018-07-08T12:55:37.299Z,26.85
2018-07-08T12:56:46.723Z,26.82
2018-07-08T12:57:56.130Z,26.85
2018-07-08T12:59:06.235Z,26.81
2018-07-08T13:00:16.260Z,26.81
2018-07-08T13:01:25.677Z,26.88
2018-07-08T13:02:35.382Z,26.91
2018-07-08T13:03:44.031Z,26.82
2018-07-08T13:04:53.441Z,26.85
2018-07-08T13:06:03.147Z,26.82
2018-07-08T13:07:12.806Z,26.91
2018-07-08T13:08:22.489Z,26.8
2018-07-08T13:09:31.901Z,26.91
2018-07-08T13:10:41.337Z,26.97
2018-07-08T13:11:50.244Z,26.92
2018-07-08T13:12:59.673Z,26.95
2018-07-08T13:14:09.341Z,26.91
2018-07-08T13:15:18.227Z,26.91
2018-07-08T13:16:27.888Z,26.94
2018-07-08T13:17:37.753Z,26.92
2018-07-08T13:18:46.653Z,26.94
2018-07-08T13:19:56.501Z,26.94
2018-07-08T13:21:06.393Z,26.94
2018-07-08T13:22:16.071Z,26.89
2018-07-08T13:23:25.506Z,26.94
2018-07-08T13:24:34.656Z,26.94
2018-07-08T13:25:44.315Z,26.95
2018-07-08T13:26:53.477Z,26.95
2018-07-08T13:28:02.893Z,26.97
2018-07-08T13:29:12.555Z,26.95
2018-07-08T13:30:22.279Z,26.95
2018-07-08T13:31:31.699Z,26.94
2018-07-08T13:32:41.414Z,27
2018-07-08T13:33:51.373Z,27.03
2018-07-08T13:35:01.050Z,26.94
2018-07-08T13:36:09.946Z,26.94
2018-07-08T13:37:19.861Z,26.97
2018-07-08T13:38:29.295Z,27.03
2018-07-08T13:39:38.727Z,27.02
2018-07-08T13:40:47.898Z,26.99
2018-07-08T13:41:57.067Z,27.04
2018-07-08T13:43:06.483Z,27
2018-07-08T13:44:15.893Z,26.97
2018-07-08T13:45:25.576Z,27.1
2018-07-08T13:46:35.004Z,27
2018-07-08T13:47:44.424Z,27.09
2018-07-08T13:48:53.322Z,27.09
2018-07-08T13:50:02.752Z,27.03
2018-07-08T13:51:12.433Z,27.04
2018-07-08T13:52:21.589Z,27.06
2018-07-08T13:53:31.263Z,27.07
2018-07-08T13:54:40.681Z,27.06
2018-07-08T13:55:50.114Z,27.07
2018-07-08T13:56:59.021Z,27.07
2018-07-08T13:58:08.433Z,27.04
2018-07-08T13:59:17.328Z,27.07
2018-07-08T14:00:26.227Z,27.12
2018-07-08T14:01:35.632Z,27.09
2018-07-08T14:02:44.530Z,27.18
2018-07-08T14:03:53.932Z,27.13
2018-07-08T14:05:03.606Z,27.18
2018-07-08T14:06:13.275Z,27.18
2018-07-08T14:07:22.198Z,27.14
2018-07-08T14:08:31.611Z,27.14
2018-07-08T14:09:40.770Z,27.13
2018-07-08T14:10:50.479Z,27.25
2018-07-08T14:11:59.626Z,27.17
2018-07-08T14:13:09.036Z,27.24
2018-07-08T14:14:18.193Z,27.19
2018-07-08T14:15:27.863Z,27.22
2018-07-08T14:16:37.281Z,27.22
2018-07-08T14:17:46.706Z,27.27
2018-07-08T14:18:55.608Z,27.21
2018-07-08T14:20:05.203Z,27.19
2018-07-08T14:21:15.359Z,27.25
2018-07-08T14:22:24.509Z,27.25
2018-07-08T14:23:33.409Z,27.22
2018-07-08T14:24:42.299Z,27.25
2018-07-08T14:25:51.729Z,27.18
2018-07-08T14:27:01.158Z,27.31
2018-07-08T14:28:10.335Z,27.25
2018-07-08T14:29:19.558Z,27.21
2018-07-08T14:30:29.625Z,27.19
2018-07-08T14:31:38.530Z,27.19
2018-07-08T14:32:47.689Z,27.25
2018-07-08T14:33:56.579Z,27.21
2018-07-08T14:35:05.498Z,27.19
2018-07-08T14:36:14.663Z,27.25
2018-07-08T14:37:23.808Z,27.27
2018-07-08T14:38:33.230Z,27.24
2018-07-08T14:39:42.384Z,27.25
2018-07-08T14:40:52.540Z,27.29
2018-07-08T14:42:01.703Z,27.28
2018-07-08T14:43:10.609Z,27.37
2018-07-08T14:44:20.297Z,27.27
2018-07-08T14:45:29.721Z,27.31
2018-07-08T14:46:38.878Z,27.28
2018-07-08T14:47:48.279Z,27.25
2018-07-08T14:48:57.695Z,27.25
2018-07-08T14:50:06.968Z,27.28
2018-07-08T14:51:16.122Z,27.22
2018-07-08T14:52:25.278Z,27.25
2018-07-08T14:53:34.715Z,27.31
2018-07-08T14:54:44.165Z,27.25
2018-07-08T14:55:53.393Z,27.25
2018-07-08T14:57:02.283Z,27.27